Agen-La Garenne Airport

METAR LFBA TAF LFBA
5 °C
°C
-
°C
29m
Leeftijd
21:28:37
LT
20:28
UTC
0 ft

1.000

2.000

3.000

4.000

5.000

OVC 4.500
VFR
<?= Yii::t('app', 'Wind direction') ?> <?= Yii::t('app', 'of'); ?>
300°
08:20
Zonsopgang
81%
Luchtvochtigheid
Windschering
Gesloten/sneeuw
Baanzicht
Baanconditie
Verticaal zicht
Min. zicht
CAVOK
Trend
Correctie
Speciaal rapport
1022 hPa
QNH
METAR LFBA 272000Z AUTO 30006KT 9999 OVC045 05/02 Q1022 NOSIG
Geheel bewolkt
1 kt
1 kt
21:00
VFR
8 kt
22:00
VFR
8 kt
23:00
VFR
8 kt
00:00
IFR
8 kt
01:00
IFR
8 kt
02:00
IFR
8 kt
03:00
IFR
8 kt
10 km+
Zicht
4.500 ft
Plafond
6 kt
Wind
metar-taf.com/LFBA

Metar-Taf.com

Visuele decoder

Wij en derden volgen je internetgedrag op onze website met cookies. Als je doorgaat, gaan we ervan uit dat je akkoord gaat met onze cookiebeleid.